sensor_id;sensor_type;location;lat;lon;timestamp;pressure;altitude;pressure_sealevel;temperature;humidity
51359;BME280;37448;51.588;7.248;2023-05-16T00:01:18;100978.97;;;10.76;90.88
51359;BME280;37448;51.588;7.248;2023-05-16T00:03:19;100975.53;;;10.74;91.60
51359;BME280;37448;51.588;7.248;2023-05-16T00:05:20;100978.28;;;10.65;91.90
51359;BME280;37448;51.588;7.248;2023-05-16T00:07:20;100980.84;;;10.68;92.48
51359;BME280;37448;51.588;7.248;2023-05-16T00:09:21;100981.78;;;10.63;91.98
51359;BME280;37448;51.588;7.248;2023-05-16T00:11:21;100986.09;;;10.66;93.13
51359;BME280;37448;51.588;7.248;2023-05-16T00:13:22;100994.00;;;10.63;92.23
51359;BME280;37448;51.588;7.248;2023-05-16T00:15:24;100987.94;;;10.59;92.53
51359;BME280;37448;51.588;7.248;2023-05-16T00:17:25;100983.69;;;10.54;92.36
51359;BME280;37448;51.588;7.248;2023-05-16T00:19:27;100988.88;;;10.55;92.54
51359;BME280;37448;51.588;7.248;2023-05-16T00:21:29;100995.00;;;10.54;93.33
51359;BME280;37448;51.588;7.248;2023-05-16T00:23:30;100989.72;;;10.56;92.89
51359;BME280;37448;51.588;7.248;2023-05-16T00:25:31;101001.06;;;10.55;92.42
51359;BME280;37448;51.588;7.248;2023-05-16T00:27:34;100996.03;;;10.42;91.32
51359;BME280;37448;51.588;7.248;2023-05-16T00:29:35;100994.28;;;10.43;93.07
51359;BME280;37448;51.588;7.248;2023-05-16T00:31:35;100997.06;;;10.30;92.84
51359;BME280;37448;51.588;7.248;2023-05-16T00:33:36;100995.25;;;10.34;93.33
51359;BME280;37448;51.588;7.248;2023-05-16T00:35:36;100995.28;;;10.31;92.70
51359;BME280;37448;51.588;7.248;2023-05-16T00:37:37;100999.56;;;10.38;93.38
51359;BME280;37448;51.588;7.248;2023-05-16T00:39:38;100995.25;;;10.36;93.35
51359;BME280;37448;51.588;7.248;2023-05-16T00:41:38;100997.06;;;10.30;92.80
51359;BME280;37448;51.588;7.248;2023-05-16T00:43:39;100992.69;;;10.32;93.35
51359;BME280;37448;51.588;7.248;2023-05-16T00:45:39;100997.00;;;10.33;93.45
51359;BME280;37448;51.588;7.248;2023-05-16T00:47:40;100996.19;;;10.30;93.72
51359;BME280;37448;51.588;7.248;2023-05-16T00:49:41;101004.09;;;10.25;93.78
51359;BME280;37448;51.588;7.248;2023-05-16T00:51:41;100999.66;;;10.30;93.23
51359;BME280;37448;51.588;7.248;2023-05-16T00:53:42;100998.09;;;10.18;92.71
51359;BME280;37448;51.588;7.248;2023-05-16T00:55:43;101000.66;;;10.22;93.42
51359;BME280;37448;51.588;7.248;2023-05-16T00:57:44;101007.66;;;10.18;93.51
51359;BME280;37448;51.588;7.248;2023-05-16T00:59:45;101009.41;;;10.17;93.14
51359;BME280;37448;51.588;7.248;2023-05-16T01:01:46;101007.72;;;10.15;93.03
51359;BME280;37448;51.588;7.248;2023-05-16T01:03:47;101004.41;;;10.03;92.56
51359;BME280;37448;51.588;7.248;2023-05-16T01:05:48;101006.19;;;10.00;92.40
51359;BME280;37448;51.588;7.248;2023-05-16T01:07:48;101007.09;;;9.94;93.14
51359;BME280;37448;51.588;7.248;2023-05-16T01:09:49;101007.94;;;9.96;93.70
51359;BME280;37448;51.588;7.248;2023-05-16T01:12:04;101014.09;;;9.94;93.67
51359;BME280;37448;51.588;7.248;2023-05-16T01:18:51;101026.25;;;9.93;94.14
51359;BME280;37448;51.588;7.248;2023-05-16T01:20:58;101030.69;;;9.88;94.23
51359;BME280;37448;51.588;7.248;2023-05-16T01:25:30;101035.97;;;9.80;93.88
51359;BME280;37448;51.588;7.248;2023-05-16T01:27:34;101053.41;;;9.76;91.97
51359;BME280;37448;51.588;7.248;2023-05-16T01:29:35;101051.94;;;9.54;90.75
51359;BME280;37448;51.588;7.248;2023-05-16T01:31:35;101060.69;;;9.46;91.68
51359;BME280;37448;51.588;7.248;2023-05-16T01:33:36;101044.25;;;9.37;91.15
51359;BME280;37448;51.588;7.248;2023-05-16T01:35:43;101052.16;;;9.32;92.60
51359;BME280;37448;51.588;7.248;2023-05-16T01:38:25;101054.75;;;9.30;93.02
51359;BME280;37448;51.588;7.248;2023-05-16T01:40:44;101056.63;;;9.16;91.30
51359;BME280;37448;51.588;7.248;2023-05-16T01:42:49;101060.97;;;9.17;91.03
51359;BME280;37448;51.588;7.248;2023-05-16T01:47:00;101065.47;;;8.95;90.87
51359;BME280;37448;51.588;7.248;2023-05-16T01:49:10;101067.22;;;8.97;91.32
51359;BME280;37448;51.588;7.248;2023-05-16T01:51:17;101069.78;;;8.99;92.13
51359;BME280;37448;51.588;7.248;2023-05-16T01:53:21;101073.25;;;9.01;92.52
51359;BME280;37448;51.588;7.248;2023-05-16T01:57:33;101076.78;;;8.94;91.56
51359;BME280;37448;51.588;7.248;2023-05-16T01:59:34;101077.66;;;8.94;91.44
51359;BME280;37448;51.588;7.248;2023-05-16T02:01:35;101079.41;;;8.90;91.50
51359;BME280;37448;51.588;7.248;2023-05-16T02:03:36;101077.66;;;8.93;92.17
51359;BME280;37448;51.588;7.248;2023-05-16T02:05:37;101086.31;;;8.96;91.88
51359;BME280;37448;51.588;7.248;2023-05-16T02:07:37;101083.72;;;8.95;92.17
51359;BME280;37448;51.588;7.248;2023-05-16T02:09:38;101086.31;;;8.95;92.38
51359;BME280;37448;51.588;7.248;2023-05-16T02:11:40;101088.94;;;8.95;92.66
51359;BME280;37448;51.588;7.248;2023-05-16T02:13:41;101087.25;;;8.87;91.78
51359;BME280;37448;51.588;7.248;2023-05-16T02:15:41;101085.53;;;8.86;92.64
51359;BME280;37448;51.588;7.248;2023-05-16T02:17:42;101089.03;;;8.82;92.27
51359;BME280;37448;51.588;7.248;2023-05-16T02:19:42;101094.25;;;8.82;92.25
51359;BME280;37448;51.588;7.248;2023-05-16T02:21:43;101094.25;;;8.82;93.44
51359;BME280;37448;51.588;7.248;2023-05-16T02:23:45;101096.00;;;8.80;92.31
51359;BME280;37448;51.588;7.248;2023-05-16T02:25:45;101097.72;;;8.78;90.51
51359;BME280;37448;51.588;7.248;2023-05-16T02:27:45;101089.91;;;8.80;92.17
51359;BME280;37448;51.588;7.248;2023-05-16T02:29:46;101096.88;;;8.76;93.18
51359;BME280;37448;51.588;7.248;2023-05-16T02:31:46;101097.75;;;8.72;92.21
51359;BME280;37448;51.588;7.248;2023-05-16T02:33:47;101094.28;;;8.73;92.73
51359;BME280;37448;51.588;7.248;2023-05-16T02:35:47;101096.00;;;8.74;93.06
51359;BME280;37448;51.588;7.248;2023-05-16T02:37:48;101091.66;;;8.78;92.67
51359;BME280;37448;51.588;7.248;2023-05-16T02:39:48;101093.47;;;8.68;92.10
51359;BME280;37448;51.588;7.248;2023-05-16T02:41:49;101102.09;;;8.74;92.63
51359;BME280;37448;51.588;7.248;2023-05-16T02:43:50;101104.75;;;8.68;92.09
51359;BME280;37448;51.588;7.248;2023-05-16T02:45:50;101108.19;;;8.69;92.51
51359;BME280;37448;51.588;7.248;2023-05-16T02:47:51;101109.06;;;8.71;92.25
51359;BME280;37448;51.588;7.248;2023-05-16T02:49:52;101113.50;;;8.56;91.11
51359;BME280;37448;51.588;7.248;2023-05-16T02:51:52;101118.63;;;8.66;92.31
51359;BME280;37448;51.588;7.248;2023-05-16T02:53:53;101118.63;;;8.66;92.62
51359;BME280;37448;51.588;7.248;2023-05-16T02:55:56;101127.31;;;8.68;93.56
51359;BME280;37448;51.588;7.248;2023-05-16T02:57:56;101127.28;;;8.71;93.85
51359;BME280;37448;51.588;7.248;2023-05-16T02:59:57;101127.28;;;8.71;93.01
51359;BME280;37448;51.588;7.248;2023-05-16T03:01:58;101125.53;;;8.73;93.38
51359;BME280;37448;51.588;7.248;2023-05-16T03:03:59;101129.88;;;8.74;92.98
51359;BME280;37448;51.588;7.248;2023-05-16T03:06:00;101129.94;;;8.61;91.17
51359;BME280;37448;51.588;7.248;2023-05-16T03:08:01;101136.88;;;8.66;92.39
51359;BME280;37448;51.588;7.248;2023-05-16T03:10:01;101137.72;;;8.68;93.29
51359;BME280;37448;51.588;7.248;2023-05-16T03:12:01;101135.13;;;8.63;92.31
51359;BME280;37448;51.588;7.248;2023-05-16T03:14:02;101142.06;;;8.64;92.66
51359;BME280;37448;51.588;7.248;2023-05-16T03:16:03;101136.00;;;8.64;93.22
51359;BME280;37448;51.588;7.248;2023-05-16T03:18:03;101144.75;;;8.56;92.41
51359;BME280;37448;51.588;7.248;2023-05-16T03:20:06;101149.91;;;8.63;92.82
51359;BME280;37448;51.588;7.248;2023-05-16T03:22:08;101156.00;;;8.57;90.97
51359;BME280;37448;51.588;7.248;2023-05-16T03:24:08;101156.88;;;8.57;92.71
51359;BME280;37448;51.588;7.248;2023-05-16T03:26:09;101152.56;;;8.52;91.87
51359;BME280;37448;51.588;7.248;2023-05-16T03:28:09;101156.88;;;8.57;92.27
51359;BME280;37448;51.588;7.248;2023-05-16T03:30:10;101157.75;;;8.48;90.47
51359;BME280;37448;51.588;7.248;2023-05-16T03:32:11;101164.69;;;8.54;92.14
51359;BME280;37448;51.588;7.248;2023-05-16T03:34:12;101155.16;;;8.50;92.49
51359;BME280;37448;51.588;7.248;2023-05-16T03:36:12;101158.63;;;8.46;92.13
51359;BME280;37448;51.588;7.248;2023-05-16T03:38:13;101163.81;;;8.46;92.37
51359;BME280;37448;51.588;7.248;2023-05-16T03:40:13;101162.09;;;8.45;92.51
51359;BME280;37448;51.588;7.248;2023-05-16T03:42:14;101167.31;;;8.42;91.77
51359;BME280;37448;51.588;7.248;2023-05-16T03:44:14;101167.31;;;8.37;91.98
51359;BME280;37448;51.588;7.248;2023-05-16T03:46:15;101174.25;;;8.43;91.73
51359;BME280;37448;51.588;7.248;2023-05-16T03:48:15;101177.78;;;8.32;90.64
51359;BME280;37448;51.588;7.248;2023-05-16T03:50:16;101177.78;;;8.31;90.12
51359;BME280;37448;51.588;7.248;2023-05-16T03:52:16;101184.72;;;8.29;90.13
51359;BME280;37448;51.588;7.248;2023-05-16T03:54:16;101181.25;;;8.27;90.10
51359;BME280;37448;51.588;7.248;2023-05-16T03:56:17;101184.75;;;8.18;90.20
51359;BME280;37448;51.588;7.248;2023-05-16T03:58:17;101193.44;;;8.08;89.80
51359;BME280;37448;51.588;7.248;2023-05-16T04:00:18;101187.38;;;8.04;90.51
51359;BME280;37448;51.588;7.248;2023-05-16T04:02:18;101190.84;;;8.01;91.14
51359;BME280;37448;51.588;7.248;2023-05-16T04:04:18;101196.06;;;8.03;89.93
51359;BME280;37448;51.588;7.248;2023-05-16T04:06:19;101191.75;;;7.94;90.16
51359;BME280;37448;51.588;7.248;2023-05-16T04:08:20;101201.28;;;7.86;89.70
51359;BME280;37448;51.588;7.248;2023-05-16T04:10:21;101199.53;;;7.82;90.38
51359;BME280;37448;51.588;7.248;2023-05-16T04:12:21;101198.69;;;7.80;89.90
51359;BME280;37448;51.588;7.248;2023-05-16T04:14:22;101211.69;;;7.78;90.02
51359;BME280;37448;51.588;7.248;2023-05-16T04:16:23;101215.16;;;7.75;90.94
51359;BME280;37448;51.588;7.248;2023-05-16T04:18:23;101218.63;;;7.71;90.30
51359;BME280;37448;51.588;7.248;2023-05-16T04:20:24;101210.84;;;7.65;90.87
51359;BME280;37448;51.588;7.248;2023-05-16T04:22:24;101216.91;;;7.67;91.00
51359;BME280;37448;51.588;7.248;2023-05-16T04:24:25;101217.78;;;7.66;91.56
51359;BME280;37448;51.588;7.248;2023-05-16T04:26:28;101221.25;;;7.65;91.48
51359;BME280;37448;51.588;7.248;2023-05-16T04:28:29;101216.03;;;7.65;91.55
51359;BME280;37448;51.588;7.248;2023-05-16T04:30:29;101226.44;;;7.68;92.13
51359;BME280;37448;51.588;7.248;2023-05-16T04:32:30;101227.28;;;7.66;91.92
51359;BME280;37448;51.588;7.248;2023-05-16T04:34:33;101226.44;;;7.71;92.13
51359;BME280;37448;51.588;7.248;2023-05-16T04:36:36;101235.97;;;7.69;91.80
51359;BME280;37448;51.588;7.248;2023-05-16T04:38:37;101235.94;;;7.68;91.33
51359;BME280;37448;51.588;7.248;2023-05-16T04:40:37;101240.28;;;7.63;90.28
51359;BME280;37448;51.588;7.248;2023-05-16T04:42:39;101241.16;;;7.66;91.74
51359;BME280;37448;51.588;7.248;2023-05-16T04:44:39;101244.63;;;7.68;91.85
51359;BME280;37448;51.588;7.248;2023-05-16T04:46:41;101246.34;;;7.58;90.25
51359;BME280;37448;51.588;7.248;2023-05-16T04:48:42;101259.38;;;7.66;91.56
51359;BME280;37448;51.588;7.248;2023-05-16T04:50:42;101252.44;;;7.65;91.08
51359;BME280;37448;51.588;7.248;2023-05-16T04:52:43;101263.72;;;7.72;91.12
51359;BME280;37448;51.588;7.248;2023-05-16T04:54:43;101252.44;;;7.71;90.84
51359;BME280;37448;51.588;7.248;2023-05-16T04:56:43;101255.91;;;7.70;91.36
51359;BME280;37448;51.588;7.248;2023-05-16T04:58:44;101253.31;;;7.72;91.31
51359;BME280;37448;51.588;7.248;2023-05-16T05:00:44;101262.81;;;7.71;89.58
51359;BME280;37448;51.588;7.248;2023-05-16T05:02:44;101271.50;;;7.73;90.53
51359;BME280;37448;51.588;7.248;2023-05-16T05:04:45;101272.34;;;7.75;90.74
51359;BME280;37448;51.588;7.248;2023-05-16T05:06:46;101272.38;;;7.83;92.34
51359;BME280;37448;51.588;7.248;2023-05-16T05:08:46;101273.25;;;7.87;91.55
51359;BME280;37448;51.588;7.248;2023-05-16T05:10:47;101269.78;;;7.88;90.18
51359;BME280;37448;51.588;7.248;2023-05-16T05:12:47;101274.94;;;7.93;91.44
51359;BME280;37448;51.588;7.248;2023-05-16T05:14:47;101276.69;;;7.95;90.93
51359;BME280;37448;51.588;7.248;2023-05-16T05:16:48;101274.97;;;7.86;89.60
51359;BME280;37448;51.588;7.248;2023-05-16T05:18:48;101278.44;;;7.96;91.05
51359;BME280;37448;51.588;7.248;2023-05-16T05:20:49;101271.50;;;7.92;88.87
51359;BME280;37448;51.588;7.248;2023-05-16T05:22:49;101279.31;;;7.92;87.94
51359;BME280;37448;51.588;7.248;2023-05-16T05:24:49;101288.84;;;7.90;88.22
51359;BME280;37448;51.588;7.248;2023-05-16T05:26:51;101290.56;;;8.00;90.09
51359;BME280;37448;51.588;7.248;2023-05-16T05:28:51;101287.97;;;8.05;90.36
51359;BME280;37448;51.588;7.248;2023-05-16T05:30:51;101294.91;;;8.09;89.99
51359;BME280;37448;51.588;7.248;2023-05-16T05:32:53;101302.69;;;8.01;87.47
51359;BME280;37448;51.588;7.248;2023-05-16T05:34:54;101298.38;;;8.05;87.99
51359;BME280;37448;51.588;7.248;2023-05-16T05:36:55;101304.44;;;8.15;88.86
51359;BME280;37448;51.588;7.248;2023-05-16T05:38:55;101302.69;;;8.26;87.02
51359;BME280;37448;51.588;7.248;2023-05-16T05:40:56;101309.59;;;8.52;87.65
51359;BME280;37448;51.588;7.248;2023-05-16T05:42:56;101305.19;;;8.82;88.70
51359;BME280;37448;51.588;7.248;2023-05-16T05:44:57;101313.78;;;9.04;88.07
51359;BME280;37448;51.588;7.248;2023-05-16T05:46:57;101309.41;;;9.14;85.17
51359;BME280;37448;51.588;7.248;2023-05-16T05:48:59;101314.53;;;9.33;84.58
51359;BME280;37448;51.588;7.248;2023-05-16T05:50:59;101314.47;;;9.42;85.29
51359;BME280;37448;51.588;7.248;2023-05-16T05:53:00;101324.75;;;9.64;87.15
51359;BME280;37448;51.588;7.248;2023-05-16T05:55:00;101326.41;;;9.77;84.86
51359;BME280;37448;51.588;7.248;2023-05-16T05:57:01;101336.72;;;9.93;84.40
51359;BME280;37448;51.588;7.248;2023-05-16T05:59:01;101325.25;;;10.11;84.87
51359;BME280;37448;51.588;7.248;2023-05-16T06:01:01;101326.78;;;10.34;83.31
51359;BME280;37448;51.588;7.248;2023-05-16T06:03:02;101324.19;;;10.37;83.32
51359;BME280;37448;51.588;7.248;2023-05-16T06:05:02;101330.31;;;10.31;80.23
51359;BME280;37448;51.588;7.248;2023-05-16T06:07:03;101330.19;;;10.50;80.82
51359;BME280;37448;51.588;7.248;2023-05-16T06:09:04;101322.25;;;10.61;82.45
51359;BME280;37448;51.588;7.248;2023-05-16T06:11:04;101332.53;;;10.72;81.83
51359;BME280;37448;51.588;7.248;2023-05-16T06:13:04;101328.97;;;10.82;76.97
51359;BME280;37448;51.588;7.248;2023-05-16T06:15:05;101331.97;;;11.22;84.94
51359;BME280;37448;51.588;7.248;2023-05-16T06:17:06;101333.38;;;11.46;82.56
51359;BME280;37448;51.588;7.248;2023-05-16T06:19:07;101333.69;;;11.23;76.72
51359;BME280;37448;51.588;7.248;2023-05-16T06:21:07;101338.72;;;11.38;78.82
51359;BME280;37448;51.588;7.248;2023-05-16T06:23:07;101333.84;;;11.10;71.96
51359;BME280;37448;51.588;7.248;2023-05-16T06:25:08;101332.44;;;11.50;77.80
51359;BME280;37448;51.588;7.248;2023-05-16T06:27:08;101334.06;;;11.57;78.14
51359;BME280;37448;51.588;7.248;2023-05-16T06:29:09;101348.91;;;11.57;73.37
51359;BME280;37448;51.588;7.248;2023-05-16T06:31:09;101348.84;;;11.61;74.54
51359;BME280;37448;51.588;7.248;2023-05-16T06:33:10;101347.34;;;11.46;72.83
51359;BME280;37448;51.588;7.248;2023-05-16T06:35:10;101346.31;;;11.57;70.33
51359;BME280;37448;51.588;7.248;2023-05-16T06:37:11;101343.63;;;11.60;71.85
51359;BME280;37448;51.588;7.248;2023-05-16T06:39:11;101348.19;;;12.06;76.16
51359;BME280;37448;51.588;7.248;2023-05-16T06:41:11;101346.78;;;12.39;77.65
51359;BME280;37448;51.588;7.248;2023-05-16T06:43:12;101346.06;;;12.30;74.59
51359;BME280;37448;51.588;7.248;2023-05-16T06:45:12;101348.25;;;12.03;67.82
51359;BME280;37448;51.588;7.248;2023-05-16T06:47:13;101345.97;;;12.35;76.20
51359;BME280;37448;51.588;7.248;2023-05-16T06:49:13;101346.16;;;12.24;71.29
51359;BME280;37448;51.588;7.248;2023-05-16T06:51:14;101348.13;;;12.10;66.12
51359;BME280;37448;51.588;7.248;2023-05-16T06:53:15;101350.56;;;12.71;76.21
51359;BME280;37448;51.588;7.248;2023-05-16T06:55:15;101341.75;;;12.75;72.56
51359;BME280;37448;51.588;7.248;2023-05-16T06:57:16;101344.91;;;12.45;66.53
51359;BME280;37448;51.588;7.248;2023-05-16T06:59:16;101337.31;;;12.31;72.73
51359;BME280;37448;51.588;7.248;2023-05-16T07:01:16;101341.75;;;12.75;74.52
51359;BME280;37448;51.588;7.248;2023-05-16T07:03:17;101348.22;;;13.01;71.46
51359;BME280;37448;51.588;7.248;2023-05-16T07:05:17;101345.06;;;13.27;70.02
51359;BME280;37448;51.588;7.248;2023-05-16T07:07:18;101351.25;;;13.25;69.91
51359;BME280;37448;51.588;7.248;2023-05-16T07:09:19;101358.28;;;13.23;73.22
51359;BME280;37448;51.588;7.248;2023-05-16T07:11:20;101359.56;;;13.01;68.08
51359;BME280;37448;51.588;7.248;2023-05-16T07:13:20;101358.72;;;12.03;61.02
51359;BME280;37448;51.588;7.248;2023-05-16T07:15:21;101354.47;;;11.93;66.26
51359;BME280;37448;51.588;7.248;2023-05-16T07:17:21;101361.00;;;12.24;68.41
51359;BME280;37448;51.588;7.248;2023-05-16T07:19:22;101361.94;;;12.19;67.51
51359;BME280;37448;51.588;7.248;2023-05-16T07:21:22;101356.91;;;12.57;70.23
51359;BME280;37448;51.588;7.248;2023-05-16T07:23:22;101361.91;;;12.71;67.79
51359;BME280;37448;51.588;7.248;2023-05-16T07:25:23;101355.63;;;12.80;66.48
51359;BME280;37448;51.588;7.248;2023-05-16T07:27:24;101358.22;;;13.26;71.10
51359;BME280;37448;51.588;7.248;2023-05-16T07:29:24;101355.56;;;13.27;67.66
51359;BME280;37448;51.588;7.248;2023-05-16T07:31:24;101356.16;;;13.40;69.03
51359;BME280;37448;51.588;7.248;2023-05-16T07:33:25;101361.97;;;13.56;66.30
51359;BME280;37448;51.588;7.248;2023-05-16T07:35:26;101356.06;;;13.46;62.29
51359;BME280;37448;51.588;7.248;2023-05-16T07:37:26;101368.03;;;13.96;65.84
51359;BME280;37448;51.588;7.248;2023-05-16T07:39:27;101358.06;;;14.11;59.95
51359;BME280;37448;51.588;7.248;2023-05-16T07:41:28;101351.38;;;13.59;53.84
51359;BME280;37448;51.588;7.248;2023-05-16T07:43:28;101362.38;;;14.48;64.28
51359;BME280;37448;51.588;7.248;2023-05-16T07:45:29;101365.00;;;14.48;60.43
51359;BME280;37448;51.588;7.248;2023-05-16T07:47:29;101365.78;;;14.52;61.18
51359;BME280;37448;51.588;7.248;2023-05-16T07:49:30;101357.44;;;14.35;62.53
51359;BME280;37448;51.588;7.248;2023-05-16T07:51:30;101370.50;;;14.02;52.71
51359;BME280;37448;51.588;7.248;2023-05-16T07:53:31;101367.78;;;13.69;53.57
51359;BME280;37448;51.588;7.248;2023-05-16T07:55:31;101370.94;;;13.84;61.21
51359;BME280;37448;51.588;7.248;2023-05-16T07:57:31;101371.00;;;13.81;54.07
51359;BME280;37448;51.588;7.248;2023-05-16T07:59:32;101373.44;;;13.90;64.37
51359;BME280;37448;51.588;7.248;2023-05-16T08:01:32;101373.22;;;13.99;61.73
51359;BME280;37448;51.588;7.248;2023-05-16T08:03:33;101375.25;;;14.23;58.54
51359;BME280;37448;51.588;7.248;2023-05-16T08:05:34;101373.50;;;14.23;57.94
51359;BME280;37448;51.588;7.248;2023-05-16T08:07:34;101381.31;;;14.26;61.42
51359;BME280;37448;51.588;7.248;2023-05-16T08:09:35;101377.72;;;13.94;64.65
51359;BME280;37448;51.588;7.248;2023-05-16T08:11:35;101379.25;;;13.65;63.42
51359;BME280;37448;51.588;7.248;2023-05-16T08:13:36;101375.16;;;13.52;66.32
51359;BME280;37448;51.588;7.248;2023-05-16T08:15:36;101378.47;;;13.61;61.76
51359;BME280;37448;51.588;7.248;2023-05-16T08:17:37;101376.25;;;13.81;62.92
51359;BME280;37448;51.588;7.248;2023-05-16T08:19:37;101382.31;;;14.20;62.38
51359;BME280;37448;51.588;7.248;2023-05-16T08:21:38;101378.06;;;13.78;52.57
51359;BME280;37448;51.588;7.248;2023-05-16T08:23:39;101376.09;;;14.25;60.46
51359;BME280;37448;51.588;7.248;2023-05-16T08:25:39;101367.78;;;14.42;53.36
51359;BME280;37448;51.588;7.248;2023-05-16T08:27:40;101367.94;;;15.02;65.68
51359;BME280;37448;51.588;7.248;2023-05-16T08:29:40;101374.81;;;15.07;58.06
51359;BME280;37448;51.588;7.248;2023-05-16T08:31:41;101365.06;;;15.41;59.71
51359;BME280;37448;51.588;7.248;2023-05-16T08:33:41;101364.38;;;15.34;53.57
51359;BME280;37448;51.588;7.248;2023-05-16T08:35:42;101376.00;;;15.27;58.47
51359;BME280;37448;51.588;7.248;2023-05-16T08:37:43;101379.94;;;14.81;56.26
51359;BME280;37448;51.588;7.248;2023-05-16T08:39:43;101376.31;;;14.50;55.27
51359;BME280;37448;51.588;7.248;2023-05-16T08:41:44;101379.28;;;14.38;62.24
51359;BME280;37448;51.588;7.248;2023-05-16T08:43:44;101383.84;;;14.29;55.38
51359;BME280;37448;51.588;7.248;2023-05-16T08:45:45;101386.97;;;14.09;60.44
51359;BME280;37448;51.588;7.248;2023-05-16T08:47:47;101391.16;;;13.80;61.92
51359;BME280;37448;51.588;7.248;2023-05-16T08:49:51;101380.63;;;13.41;57.37
51359;BME280;37448;51.588;7.248;2023-05-16T08:51:55;101379.13;;;13.29;61.48
51359;BME280;37448;51.588;7.248;2023-05-16T08:54:02;101378.28;;;13.27;61.16
51359;BME280;37448;51.588;7.248;2023-05-16T08:56:03;101385.84;;;13.42;63.18
51359;BME280;37448;51.588;7.248;2023-05-16T08:58:05;101388.22;;;13.94;64.23
51359;BME280;37448;51.588;7.248;2023-05-16T09:00:06;101380.50;;;13.48;48.47
51359;BME280;37448;51.588;7.248;2023-05-16T09:02:11;101375.91;;;13.96;54.18
51359;BME280;37448;51.588;7.248;2023-05-16T09:04:11;101387.88;;;14.08;60.84
51359;BME280;37448;51.588;7.248;2023-05-16T09:06:12;101385.00;;;14.19;55.37
51359;BME280;37448;51.588;7.248;2023-05-16T09:08:12;101378.22;;;14.45;60.81
51359;BME280;37448;51.588;7.248;2023-05-16T09:10:13;101372.53;;;14.95;61.86
51359;BME280;37448;51.588;7.248;2023-05-16T09:12:13;101376.03;;;15.26;50.99
51359;BME280;37448;51.588;7.248;2023-05-16T09:14:13;101366.69;;;15.74;57.27
51359;BME280;37448;51.588;7.248;2023-05-16T09:16:15;101372.16;;;15.96;56.03
51359;BME280;37448;51.588;7.248;2023-05-16T09:18:16;101354.59;;;16.24;52.55
51359;BME280;37448;51.588;7.248;2023-05-16T09:20:18;101371.50;;;16.43;53.40
51359;BME280;37448;51.588;7.248;2023-05-16T09:22:18;101364.38;;;16.71;54.00
51359;BME280;37448;51.588;7.248;2023-05-16T09:24:24;101368.84;;;16.69;52.77
51359;BME280;37448;51.588;7.248;2023-05-16T09:26:25;101369.53;;;16.74;55.39
51359;BME280;37448;51.588;7.248;2023-05-16T09:28:26;101381.66;;;16.27;54.02
51359;BME280;37448;51.588;7.248;2023-05-16T09:30:29;101382.72;;;15.66;52.66
51359;BME280;37448;51.588;7.248;2023-05-16T09:32:30;101375.00;;;15.00;48.36
51359;BME280;37448;51.588;7.248;2023-05-16T09:34:31;101382.59;;;14.79;59.58
51359;BME280;37448;51.588;7.248;2023-05-16T09:36:31;101389.72;;;14.75;58.19
51359;BME280;37448;51.588;7.248;2023-05-16T09:38:32;101381.75;;;14.78;54.46
51359;BME280;37448;51.588;7.248;2023-05-16T09:40:33;101375.00;;;15.00;53.55
51359;BME280;37448;51.588;7.248;2023-05-16T09:42:33;101374.59;;;14.84;55.67
51359;BME280;37448;51.588;7.248;2023-05-16T09:44:33;101371.38;;;15.04;54.41
51359;BME280;37448;51.588;7.248;2023-05-16T09:46:36;101373.56;;;15.21;57.39
51359;BME280;37448;51.588;7.248;2023-05-16T09:48:40;101362.88;;;15.56;45.80
51359;BME280;37448;51.588;7.248;2023-05-16T09:50:54;101366.88;;;15.96;44.02
51359;BME280;37448;51.588;7.248;2023-05-16T09:52:56;101370.06;;;16.33;58.48
51359;BME280;37448;51.588;7.248;2023-05-16T09:54:56;101357.06;;;16.01;45.66
51359;BME280;37448;51.588;7.248;2023-05-16T09:56:56;101363.84;;;16.35;52.28
51359;BME280;37448;51.588;7.248;2023-05-16T09:58:57;101350.53;;;15.58;42.49
51359;BME280;37448;51.588;7.248;2023-05-16T10:00:57;101356.06;;;15.77;53.33
51359;BME280;37448;51.588;7.248;2023-05-16T10:02:59;101360.25;;;15.56;54.92
51359;BME280;37448;51.588;7.248;2023-05-16T10:05:00;101365.59;;;15.23;60.01
51359;BME280;37448;51.588;7.248;2023-05-16T10:07:04;101366.78;;;14.47;48.09
51359;BME280;37448;51.588;7.248;2023-05-16T10:09:06;101369.53;;;14.06;54.13
51359;BME280;37448;51.588;7.248;2023-05-16T10:11:07;101357.50;;;14.32;56.63
51359;BME280;37448;51.588;7.248;2023-05-16T10:13:09;101361.25;;;14.57;55.79
51359;BME280;37448;51.588;7.248;2023-05-16T10:15:10;101356.25;;;15.12;59.20
51359;BME280;37448;51.588;7.248;2023-05-16T10:17:13;101354.47;;;15.71;55.78
51359;BME280;37448;51.588;7.248;2023-05-16T10:19:16;101357.22;;;15.68;46.74
51359;BME280;37448;51.588;7.248;2023-05-16T10:21:21;101349.41;;;16.20;53.55
51359;BME280;37448;51.588;7.248;2023-05-16T10:23:24;101347.16;;;16.60;55.25
51359;BME280;37448;51.588;7.248;2023-05-16T10:27:26;101349.75;;;17.11;50.32
51359;BME280;37448;51.588;7.248;2023-05-16T10:29:27;101350.56;;;17.13;53.97
51359;BME280;37448;51.588;7.248;2023-05-16T10:31:28;101353.03;;;16.92;55.82
51359;BME280;37448;51.588;7.248;2023-05-16T10:33:28;101357.81;;;16.57;51.97
51359;BME280;37448;51.588;7.248;2023-05-16T10:35:30;101352.91;;;16.21;55.79
51359;BME280;37448;51.588;7.248;2023-05-16T10:37:32;101350.66;;;15.82;51.28
51359;BME280;37448;51.588;7.248;2023-05-16T10:39:33;101354.13;;;15.54;52.58
51359;BME280;37448;51.588;7.248;2023-05-16T10:41:35;101354.56;;;14.78;47.86
51359;BME280;37448;51.588;7.248;2023-05-16T10:43:35;101357.19;;;14.80;54.02
51359;BME280;37448;51.588;7.248;2023-05-16T10:45:39;101353.75;;;14.76;52.36
51359;BME280;37448;51.588;7.248;2023-05-16T10:47:53;101349.28;;;15.11;47.08
51359;BME280;37448;51.588;7.248;2023-05-16T10:49:53;101341.88;;;15.53;55.32
51359;BME280;37448;51.588;7.248;2023-05-16T10:52:07;101342.56;;;15.88;47.57